Time;durP1;ratioP1;P1;durP2;ratioP2;P2;SDS_P1;SDS_P2;PMS_P1;PMS_P2;Temp;Humidity;BMP_temperature;BMP_pressure;BME280_temperature;BME280_humidity;BME280_pressure;Samples;Min_cycle;Max_cycle;Signal;HPM_P1;HPM_P2
2022/07/06 00:00:05;;;;;;;;;;;;;;;;;;4922796;29;20379;-81
2022/07/06 00:02:32;;;;;;;;;;;;;;;;;;4918979;29;19941;-82
2022/07/06 00:04:59;;;;;;;;;;;;;;;;;;4919351;29;19930;-82
2022/07/06 00:07:27;;;;;;;;;;;;;;;;;;4906614;29;20417;-82
2022/07/06 00:09:54;;;;;;;;;;;;;;;;;;4919263;29;20015;-82
2022/07/06 00:12:21;;;;;;;;;;;;;;;;;;4902609;29;19927;-82
2022/07/06 00:14:48;;;;;;;;;;;;;;;;;;4886708;29;19931;-82
2022/07/06 00:17:16;;;;;;;;;;;;;;;;;;4902154;29;19926;-82
2022/07/06 00:19:43;;;;;;;;;;;;;;;;;;4900866;29;20516;-82
2022/07/06 00:22:10;;;;;;;;;;;;;;;;;;4903867;29;20572;-82
2022/07/06 00:24:38;;;;;;;;;;;;;;;;;;4921753;29;20430;-80
2022/07/06 00:27:05;;;;;;;;;;;;;;;;;;4925863;29;19931;-79
2022/07/06 00:29:32;;;;;;;;;;;;;;;;;;4922007;29;19931;-82
2022/07/06 00:32:00;;;;;;;;;;;;;;;;;;4919219;29;19934;-82
2022/07/06 00:34:31;;;;;;;;;;;;;;;;;;4920996;28;19937;-79
2022/07/06 00:36:58;;;;;;;;;;;;;;;;;;4892699;29;19927;-78
2022/07/06 00:39:28;;;;;;;;;;;;;;;;;;4879206;29;20405;-79
2022/07/06 00:41:56;;;;;;;;;;;;;;;;;;4891537;29;19926;-79
2022/07/06 00:44:24;;;;;;;;;;;;;;;;;;4879930;29;19928;-79
2022/07/06 00:46:51;;;;;;;;;;;;;;;;;;4877187;29;19938;-79
2022/07/06 00:52:04;;;;;;;;;;;;;;;;;;4897181;29;20365;-79
2022/07/06 00:54:31;;;;;;;;;;;;;;;;;;4880578;29;20121;-79
2022/07/06 00:56:59;;;;;;;;;;;;;;;;;;4895598;29;21298;-79
2022/07/06 00:59:26;;;;;;;;;;;;;;;;;;4882545;29;20438;-79
2022/07/06 01:01:54;;;;;;;;;;;;;;;;;;4900512;29;19934;-79
2022/07/06 01:04:21;;;;;;;;;;;;;;;;;;4896089;29;19931;-79
2022/07/06 01:06:48;;;;;;;;;;;;;;;;;;4882058;29;20764;-78
2022/07/06 01:09:16;;;;;;;;;;;;;;;;;;4882448;29;19934;-79
2022/07/06 01:11:43;;;;;;;;;;;;;;;;;;4900481;29;19927;-78
2022/07/06 01:14:10;;;;;;;;;;;;;;;;;;4882458;29;19927;-78
2022/07/06 01:16:38;;;;;;;;;;;;;;;;;;4898997;29;20557;-78
2022/07/06 01:19:06;;;;;;;;;;;;;;;;;;4881581;29;19927;-78
2022/07/06 01:21:33;;;;;;;;;;;;;;;;;;4881867;29;19935;-78
2022/07/06 01:24:00;;;;;;;;;;;;;;;;;;4881941;29;19937;-79
2022/07/06 01:26:27;;;;;;;;;;;;;;;;;;4896736;29;19926;-79
2022/07/06 01:28:55;;;;;;;;;;;;;;;;;;4864600;29;19933;-79
2022/07/06 01:31:22;;;;;;;;;;;;;;;;;;4898491;29;20134;-79
2022/07/06 01:33:50;;;;;;;;;;;;;;;;;;4896971;29;19974;-79
2022/07/06 01:36:17;;;;;;;;;;;;;;;;;;4878402;29;20022;-79
2022/07/06 01:38:45;;;;;;;;;;;;;;;;;;4879388;29;20022;-79
2022/07/06 01:41:13;;;;;;;;;;;;;;;;;;4878419;29;19999;-78
2022/07/06 01:43:40;;;;;;;;;;;;;;;;;;4881883;29;20008;-79
2022/07/06 01:46:07;;;;;;;;;;;;;;;;;;4890558;29;20382;-79
2022/07/06 01:48:35;;;;;;;;;;;;;;;;;;4884921;29;20027;-78
2022/07/06 01:51:02;;;;;;;;;;;;;;;;;;4880955;29;19938;-79
2022/07/06 01:53:29;;;;;;;;;;;;;;;;;;4881464;29;19967;-79
2022/07/06 01:55:56;;;;;;;;;;;;;;;;;;4883484;29;19933;-78
2022/07/06 01:58:24;;;;;;;;;;;;;;;;;;4876265;29;20380;-79
2022/07/06 02:00:51;;;;;;;;;;;;;;;;;;4883141;29;19987;-78
2022/07/06 02:03:19;;;;;;;;;;;;;;;;;;4876954;29;20372;-79
2022/07/06 02:05:46;;;;;;;;;;;;;;;;;;4879896;29;19927;-79
2022/07/06 02:08:13;;;;;;;;;;;;;;;;;;4881236;29;20435;-78
2022/07/06 02:10:41;;;;;;;;;;;;;;;;;;4893268;29;19931;-79
2022/07/06 02:13:08;;;;;;;;;;;;;;;;;;4877837;29;20855;-78
2022/07/06 02:15:35;;;;;;;;;;;;;;;;;;4879980;29;19998;-78
2022/07/06 02:18:02;;;;;;;;;;;;;;;;;;4876174;29;20376;-79
2022/07/06 02:20:30;;;;;;;;;;;;;;;;;;4882771;29;20068;-79
2022/07/06 02:22:57;;;;;;;;;;;;;;;;;;4883235;29;19934;-79
2022/07/06 02:25:24;;;;;;;;;;;;;;;;;;4884359;29;19932;-78
2022/07/06 02:27:52;;;;;;;;;;;;;;;;;;4881101;29;19932;-79
2022/07/06 02:30:20;;;;;;;;;;;;;;;;;;4881638;29;20380;-79
2022/07/06 02:32:47;;;;;;;;;;;;;;;;;;4881810;29;19931;-78
2022/07/06 02:35:15;;;;;;;;;;;;;;;;;;4881686;29;19931;-78
2022/07/06 02:37:43;;;;;;;;;;;;;;;;;;4881973;29;19927;-79
2022/07/06 02:40:10;;;;;;;;;;;;;;;;;;4881481;29;19934;-79
2022/07/06 02:42:37;;;;;;;;;;;;;;;;;;4897381;29;19934;-79
2022/07/06 02:45:05;;;;;;;;;;;;;;;;;;4879790;29;20025;-78
2022/07/06 02:47:33;;;;;;;;;;;;;;;;;;4865727;29;20642;-79
2022/07/06 02:50:00;;;;;;;;;;;;;;;;;;4883400;29;19954;-78
2022/07/06 02:52:28;;;;;;;;;;;;;;;;;;4883887;29;19934;-79
2022/07/06 02:54:56;;;;;;;;;;;;;;;;;;4886892;29;19931;-78
2022/07/06 02:57:23;;;;;;;;;;;;;;;;;;4882014;29;19927;-78
2022/07/06 02:59:51;;;;;;;;;;;;;;;;;;4882787;29;21006;-78
2022/07/06 03:02:18;;;;;;;;;;;;;;;;;;4875454;29;19931;-78
2022/07/06 03:04:46;;;;;;;;;;;;;;;;;;4864144;29;19928;-79
2022/07/06 03:07:15;;;;;;;;;;;;;;;;;;4881181;29;20047;-78
2022/07/06 03:09:43;;;;;;;;;;;;;;;;;;4895531;29;19931;-78
2022/07/06 03:12:10;;;;;;;;;;;;;;;;;;4880288;29;19938;-79
2022/07/06 03:14:38;;;;;;;;;;;;;;;;;;4877736;29;19927;-78
2022/07/06 03:17:05;;;;;;;;;;;;;;;;;;4880344;29;19982;-78
2022/07/06 03:19:33;;;;;;;;;;;;;;;;;;4880602;29;20358;-79
2022/07/06 03:22:00;;;;;;;;;;;;;;;;;;4879520;29;19938;-79
2022/07/06 03:24:27;;;;;;;;;;;;;;;;;;4980252;23;19933;-79
2022/07/06 03:26:55;;;;;;;;;;;;;;;;;;4928549;29;19969;-79
2022/07/06 03:29:22;;;;;;;;;;;;;;;;;;4939555;29;19982;-78
2022/07/06 03:31:50;;;;;;;;;;;;;;;;;;4927596;29;20705;-77
2022/07/06 03:34:17;;;;;;;;;;;;;;;;;;4929971;29;19927;-79
2022/07/06 03:36:44;;;;;;;;;;;;;;;;;;4943266;28;19932;-78
2022/07/06 03:39:12;;;;;;;;;;;;;;;;;;4943161;29;19934;-78
2022/07/06 03:41:39;;;;;;;;;;;;;;;;;;4941012;29;19926;-79
2022/07/06 03:44:08;;;;;;;;;;;;;;;;;;4943271;29;19931;-78
2022/07/06 03:46:35;;;;;;;;;;;;;;;;;;4914385;29;21263;-78
2022/07/06 03:49:03;;;;;;;;;;;;;;;;;;4938459;29;19949;-78
2022/07/06 03:51:30;;;;;;;;;;;;;;;;;;4939465;29;20010;-79
2022/07/06 03:53:57;;;;;;;;;;;;;;;;;;4941987;29;20036;-78
2022/07/06 03:56:28;;;;;;;;;;;;;;;;;;4937038;28;19985;-79
2022/07/06 03:58:59;;;;;;;;;;;;;;;;;;4944012;29;19933;-79
2022/07/06 04:01:27;;;;;;;;;;;;;;;;;;4927179;29;19973;-78
2022/07/06 04:03:54;;;;;;;;;;;;;;;;;;4940253;29;19926;-79
2022/07/06 04:06:22;;;;;;;;;;;;;;;;;;4934893;28;19930;-81
2022/07/06 04:08:49;;;;;;;;;;;;;;;;;;4941486;28;20556;-79
2022/07/06 04:11:17;;;;;;;;;;;;;;;;;;4942687;29;19926;-79
2022/07/06 04:13:44;;;;;;;;;;;;;;;;;;4955878;28;20390;-78
2022/07/06 04:16:12;;;;;;;;;;;;;;;;;;4941959;28;20037;-79
2022/07/06 04:18:39;;;;;;;;;;;;;;;;;;4942079;29;19938;-79
2022/07/06 04:21:07;;;;;;;;;;;;;;;;;;4942732;29;19930;-79
2022/07/06 04:23:36;;;;;;;;;;;;;;;;;;4926756;29;19949;-78
2022/07/06 04:26:05;;;;;;;;;;;;;;;;;;4942542;28;19926;-78
2022/07/06 04:28:34;;;;;;;;;;;;;;;;;;4943556;29;19977;-78
2022/07/06 04:31:02;;;;;;;;;;;;;;;;;;4926034;29;20177;-79
2022/07/06 04:33:29;;;;;;;;;;;;;;;;;;4943224;29;19937;-80
2022/07/06 04:35:57;;;;;;;;;;;;;;;;;;4939587;28;20371;-79
2022/07/06 04:38:31;;;;;;;;;;;;;;;;;;4923838;29;19926;-79
2022/07/06 04:41:02;;;;;;;;;;;;;;;;;;4942349;29;19938;-77
2022/07/06 04:43:30;;;;;;;;;;;;;;;;;;4938784;29;20051;-79
2022/07/06 04:45:57;;;;;;;;;;;;;;;;;;4920784;29;19930;-81
2022/07/06 04:48:24;;;;;;;;;;;;;;;;;;4937130;29;19958;-79
2022/07/06 04:50:52;;;;;;;;;;;;;;;;;;4940168;29;19937;-77
2022/07/06 04:53:25;;;;;;;;;;;;;;;;;;4926599;29;19934;-79
2022/07/06 04:55:52;;;;;;;;;;;;;;;;;;4941908;28;20029;-78
2022/07/06 04:58:20;;;;;;;;;;;;;;;;;;4942044;29;20020;-77
2022/07/06 05:00:48;;;;;;;;;;;;;;;;;;4935239;29;19933;-79
2022/07/06 05:03:15;;;;;;;;;;;;;;;;;;4935896;29;20354;-77
2022/07/06 05:05:43;;;;;;;;;;;;;;;;;;4921263;29;19935;-79
2022/07/06 05:08:10;;;;;;;;;;;;;;;;;;4936474;29;19953;-79
2022/07/06 05:10:38;;;;;;;;;;;;;;;;;;4937987;29;19930;-78
2022/07/06 05:13:05;;;;;;;;;;;;;;;;;;4939518;29;19932;-79
2022/07/06 05:15:32;;;;;;;;;;;;;;;;;;4935222;29;19931;-79
2022/07/06 05:18:00;;;;;;;;;;;;;;;;;;4937887;29;19961;-78
2022/07/06 05:20:27;;;;;;;;;;;;;;;;;;4940945;28;19937;-76
2022/07/06 05:22:54;;;;;;;;;;;;;;;;;;4922535;29;19940;-79
2022/07/06 05:25:28;;;;;;;;;;;;;;;;;;4907168;29;19962;-79
2022/07/06 05:27:55;;;;;;;;;;;;;;;;;;4917457;29;20012;-78
2022/07/06 05:30:22;;;;;;;;;;;;;;;;;;4927593;29;20021;-78
2022/07/06 05:32:50;;;;;;;;;;;;;;;;;;4940519;29;19927;-78
2022/07/06 05:35:17;;;;;;;;;;;;;;;;;;4936437;28;19932;-78
2022/07/06 05:38:06;;;;;;;;;;;;;;;;;;4915935;29;19931;-79
2022/07/06 05:40:33;;;;;;;;;;;;;;;;;;4937499;29;19931;-81
2022/07/06 05:43:01;;;;;;;;;;;;;;;;;;4907887;29;20355;-79
2022/07/06 05:45:29;;;;;;;;;;;;;;;;;;4934715;28;19957;-79
2022/07/06 05:50:43;;;;;;;;;;;;;;;;;;4920759;29;20020;-80
2022/07/06 05:53:10;;;;;;;;;;;;;;;;;;4932978;29;20014;-80
2022/07/06 05:55:46;;;;;;;;;;;;;;;;;;4934578;29;19933;-80
2022/07/06 05:58:14;;;;;;;;;;;;;;;;;;4938363;29;19926;-79
2022/07/06 06:00:43;;;;;;;;;;;;;;;;;;4940724;29;19937;-79
2022/07/06 06:03:15;;;;;;;;;;;;;;;;;;4930074;29;20376;-79
2022/07/06 06:05:42;;;;;;;;;;;;;;;;;;4938641;28;19933;-79
2022/07/06 06:08:11;;;;;;;;;;;;;;;;;;4939960;29;19930;-78
2022/07/06 06:10:38;;;;;;;;;;;;;;;;;;4940426;29;20382;-79
2022/07/06 06:13:08;;;;;;;;;;;;;;;;;;4938923;29;19922;-79
2022/07/06 06:15:36;;;;;;;;;;;;;;;;;;4939106;28;19926;-78
2022/07/06 06:18:04;;;;;;;;;;;;;;;;;;4919386;29;19981;-78
2022/07/06 06:20:32;;;;;;;;;;;;;;;;;;4936622;29;19926;-79
2022/07/06 06:22:59;;;;;;;;;;;;;;;;;;4938250;29;19938;-78
2022/07/06 06:25:27;;;;;;;;;;;;;;;;;;4920269;29;19986;-77
2022/07/06 06:27:54;;;;;;;;;;;;;;;;;;4903751;29;19934;-78
2022/07/06 06:30:21;;;;;;;;;;;;;;;;;;4925002;29;19927;-78
2022/07/06 06:32:49;;;;;;;;;;;;;;;;;;4917428;29;19937;-78
2022/07/06 06:35:16;;;;;;;;;;;;;;;;;;4982438;23;19926;-77
2022/07/06 06:37:43;;;;;;;;;;;;;;;;;;4933425;28;20530;-76
2022/07/06 06:40:11;;;;;;;;;;;;;;;;;;4945277;28;19926;-78
2022/07/06 06:42:38;;;;;;;;;;;;;;;;;;4958741;28;19926;-75
2022/07/06 06:45:10;;;;;;;;;;;;;;;;;;4925013;29;19949;-77
2022/07/06 06:47:37;;;;;;;;;;;;;;;;;;4926863;29;20538;-78
2022/07/06 06:50:04;;;;;;;;;;;;;;;;;;4928184;29;19930;-78
2022/07/06 06:52:32;;;;;;;;;;;;;;;;;;4927035;29;19934;-79
2022/07/06 06:55:07;;;;;;;;;;;;;;;;;;4926638;29;19970;-80
2022/07/06 06:57:34;;;;;;;;;;;;;;;;;;4897082;29;19934;-80
2022/07/06 07:00:01;;;;;;;;;;;;;;;;;;4907074;29;19933;-78
2022/07/06 07:02:29;;;;;;;;;;;;;;;;;;4924834;29;19934;-76
2022/07/06 07:04:56;;;;;;;;;;;;;;;;;;4925662;29;20627;-79
2022/07/06 07:07:23;;;;;;;;;;;;;;;;;;4926516;29;19937;-78
2022/07/06 07:09:51;;;;;;;;;;;;;;;;;;4929862;29;19930;-79
2022/07/06 07:12:18;;;;;;;;;;;;;;;;;;4925476;29;19930;-79
2022/07/06 07:14:47;;;;;;;;;;;;;;;;;;4927102;29;19937;-80
2022/07/06 07:17:14;;;;;;;;;;;;;;;;;;4908833;29;20351;-78
2022/07/06 07:19:41;;;;;;;;;;;;;;;;;;4926920;29;19927;-80
2022/07/06 07:22:08;;;;;;;;;;;;;;;;;;4926239;29;19942;-78
2022/07/06 07:24:36;;;;;;;;;;;;;;;;;;4923718;29;19938;-78
2022/07/06 07:27:03;;;;;;;;;;;;;;;;;;4929342;29;19932;-78
2022/07/06 07:29:30;;;;;;;;;;;;;;;;;;4927279;29;20049;-77
2022/07/06 07:31:58;;;;;;;;;;;;;;;;;;4926896;29;20320;-78
2022/07/06 07:34:25;;;;;;;;;;;;;;;;;;4926026;29;19933;-78
2022/07/06 07:36:52;;;;;;;;;;;;;;;;;;4924859;29;20175;-78
2022/07/06 07:39:19;;;;;;;;;;;;;;;;;;4924137;29;19923;-78
2022/07/06 07:41:47;;;;;;;;;;;;;;;;;;4923105;29;19927;-79
2022/07/06 07:44:17;;;;;;;;;;;;;;;;;;4920862;29;19931;-78
2022/07/06 07:46:45;;;;;;;;;;;;;;;;;;4926038;29;20332;-81
2022/07/06 07:49:12;;;;;;;;;;;;;;;;;;4927690;29;19978;-79
2022/07/06 07:51:47;;;;;;;;;;;;;;;;;;4928090;29;19930;-79
2022/07/06 07:54:14;;;;;;;;;;;;;;;;;;4927553;29;19927;-79
2022/07/06 07:56:41;;;;;;;;;;;;;;;;;;4927928;29;19926;-79
2022/07/06 07:59:08;;;;;;;;;;;;;;;;;;4927108;29;19969;-79
2022/07/06 08:01:37;;;;;;;;;;;;;;;;;;4925245;29;20392;-78
2022/07/06 08:04:04;;;;;;;;;;;;;;;;;;4923677;29;19931;-79
2022/07/06 08:06:31;;;;;;;;;;;;;;;;;;4924643;29;19957;-76
2022/07/06 08:08:59;;;;;;;;;;;;;;;;;;4933292;29;19923;-79
2022/07/06 08:11:26;;;;;;;;;;;;;;;;;;4932018;29;19966;-78
2022/07/06 08:13:53;;;;;;;;;;;;;;;;;;4933530;29;19958;-79
2022/07/06 08:16:20;;;;;;;;;;;;;;;;;;4933505;29;20455;-78
2022/07/06 08:18:48;;;;;;;;;;;;;;;;;;4933275;29;19927;-78
2022/07/06 08:21:15;;;;;;;;;;;;;;;;;;4927992;29;19922;-79
2022/07/06 08:23:52;;;;;;;;;;;;;;;;;;4946813;29;19929;-79
2022/07/06 08:26:19;;;;;;;;;;;;;;;;;;4932779;29;19934;-78
2022/07/06 08:28:46;;;;;;;;;;;;;;;;;;4932821;29;20029;-80
2022/07/06 08:31:14;;;;;;;;;;;;;;;;;;4932824;29;19926;-80
2022/07/06 08:34:01;;;;;;;;;;;;;;;;;;4928577;29;19974;-78
2022/07/06 08:36:28;;;;;;;;;;;;;;;;;;4932599;29;19933;-79
2022/07/06 08:38:55;;;;;;;;;;;;;;;;;;4936316;29;20044;-78
2022/07/06 08:41:23;;;;;;;;;;;;;;;;;;4932886;29;19933;-79
2022/07/06 08:43:51;;;;;;;;;;;;;;;;;;4949250;28;19934;-79
2022/07/06 08:46:19;;;;;;;;;;;;;;;;;;4936235;29;19933;-79
2022/07/06 08:48:46;;;;;;;;;;;;;;;;;;4940885;29;19931;-78
2022/07/06 08:51:13;;;;;;;;;;;;;;;;;;4941711;29;19981;-78
2022/07/06 08:53:41;;;;;;;;;;;;;;;;;;4923980;29;19933;-78
2022/07/06 08:56:08;;;;;;;;;;;;;;;;;;4938418;29;19927;-79
2022/07/06 08:58:35;;;;;;;;;;;;;;;;;;4941084;29;19926;-79
2022/07/06 09:01:02;;;;;;;;;;;;;;;;;;4945297;28;19926;-79
2022/07/06 09:03:29;;;;;;;;;;;;;;;;;;4942589;28;19931;-80
2022/07/06 09:05:58;;;;;;;;;;;;;;;;;;4951518;28;19927;-78
2022/07/06 09:08:25;;;;;;;;;;;;;;;;;;4934958;29;19961;-79
2022/07/06 09:10:53;;;;;;;;;;;;;;;;;;4940999;29;19954;-78
2022/07/06 09:13:23;;;;;;;;;;;;;;;;;;4942847;28;19930;-79
2022/07/06 09:15:53;;;;;;;;;;;;;;;;;;4935478;29;20392;-79
2022/07/06 09:18:38;;;;;;;;;;;;;;;;;;4944655;29;20029;-79
2022/07/06 09:21:06;;;;;;;;;;;;;;;;;;4941898;29;19927;-79
2022/07/06 09:23:33;;;;;;;;;;;;;;;;;;4953429;23;19923;-82
2022/07/06 09:26:00;;;;;;;;;;;;;;;;;;4923748;29;20006;-82
2022/07/06 09:28:28;;;;;;;;;;;;;;;;;;4931942;29;20267;-82
2022/07/06 09:30:55;;;;;;;;;;;;;;;;;;4930834;29;20321;-82
2022/07/06 09:33:27;;;;;;;;;;;;;;;;;;4929610;29;19934;-82
2022/07/06 09:36:00;;;;;;;;;;;;;;;;;;4923553;29;20366;-82
2022/07/06 09:38:27;;;;;;;;;;;;;;;;;;4950651;28;19927;-82
2022/07/06 09:40:55;;;;;;;;;;;;;;;;;;4942505;29;19933;-82
2022/07/06 09:43:23;;;;;;;;;;;;;;;;;;4931689;29;20552;-82
2022/07/06 09:45:52;;;;;;;;;;;;;;;;;;4929880;29;20019;-82
2022/07/06 09:48:22;;;;;;;;;;;;;;;;;;4928620;29;20021;-82
2022/07/06 09:50:51;;;;;;;;;;;;;;;;;;4914038;29;19931;-82
2022/07/06 09:53:19;;;;;;;;;;;;;;;;;;4929597;29;19931;-82
2022/07/06 09:55:47;;;;;;;;;;;;;;;;;;4930846;29;19923;-82
2022/07/06 09:58:14;;;;;;;;;;;;;;;;;;4928820;29;20382;-82
2022/07/06 10:00:42;;;;;;;;;;;;;;;;;;4929809;29;19937;-82
2022/07/06 10:03:10;;;;;;;;;;;;;;;;;;4929909;29;20398;-82
2022/07/06 10:05:37;;;;;;;;;;;;;;;;;;4929460;29;19986;-82
2022/07/06 10:10:58;;;;;;;;;;;;;;;;;;4932641;29;19926;-82
2022/07/06 10:13:26;;;;;;;;;;;;;;;;;;4930892;29;19977;-82
2022/07/06 10:15:54;;;;;;;;;;;;;;;;;;4931602;29;19926;-82
2022/07/06 10:18:29;;;;;;;;;;;;;;;;;;4932153;29;19982;-82
2022/07/06 10:20:58;;;;;;;;;;;;;;;;;;4927557;29;19927;-83
2022/07/06 10:23:26;;;;;;;;;;;;;;;;;;4931546;29;19929;-82
2022/07/06 10:25:53;;;;;;;;;;;;;;;;;;4934702;29;20765;-82
2022/07/06 10:28:20;;;;;;;;;;;;;;;;;;4929136;29;19926;-82
2022/07/06 10:30:48;;;;;;;;;;;;;;;;;;4938509;29;19927;-82
2022/07/06 10:33:15;;;;;;;;;;;;;;;;;;4935348;29;19926;-82
2022/07/06 10:35:44;;;;;;;;;;;;;;;;;;5042603;23;19930;-84
2022/07/06 10:54:33;;;;;;;;;;;;;;;;;;4729216;30;19930;-85
2022/07/06 10:57:28;;;;;;;;;;;;;;;;;;4949533;29;19933;-81
2022/07/06 10:59:56;;;;;;;;;;;;;;;;;;4935530;28;19982;-81
2022/07/06 11:02:23;;;;;;;;;;;;;;;;;;4928506;29;19931;-81
2022/07/06 11:04:50;;;;;;;;;;;;;;;;;;4933363;29;19965;-81
2022/07/06 11:07:18;;;;;;;;;;;;;;;;;;4935469;29;19970;-81
2022/07/06 11:09:47;;;;;;;;;;;;;;;;;;4935552;29;20053;-80
2022/07/06 11:12:14;;;;;;;;;;;;;;;;;;4939155;29;19930;-82
2022/07/06 11:14:42;;;;;;;;;;;;;;;;;;4939590;29;20142;-84
2022/07/06 11:17:10;;;;;;;;;;;;;;;;;;4932580;29;20005;-81
2022/07/06 11:19:38;;;;;;;;;;;;;;;;;;4929687;29;19923;-82
2022/07/06 11:22:05;;;;;;;;;;;;;;;;;;4915437;29;19927;-81
2022/07/06 11:24:33;;;;;;;;;;;;;;;;;;4923356;29;19926;-82
2022/07/06 11:27:00;;;;;;;;;;;;;;;;;;4932078;29;20216;-81
2022/07/06 11:29:27;;;;;;;;;;;;;;;;;;4930627;29;19926;-82
2022/07/06 11:31:55;;;;;;;;;;;;;;;;;;4935835;29;20382;-82
2022/07/06 11:34:22;;;;;;;;;;;;;;;;;;4933609;29;19930;-81
2022/07/06 11:36:49;;;;;;;;;;;;;;;;;;4933661;29;19982;-81
2022/07/06 11:39:17;;;;;;;;;;;;;;;;;;4932406;29;20390;-82
2022/07/06 11:41:44;;;;;;;;;;;;;;;;;;4933392;29;20089;-81
2022/07/06 11:44:17;;;;;;;;;;;;;;;;;;4925996;29;19931;-81
2022/07/06 11:46:44;;;;;;;;;;;;;;;;;;4934387;29;19927;-82
2022/07/06 11:49:12;;;;;;;;;;;;;;;;;;4930838;29;20017;-82
2022/07/06 11:51:39;;;;;;;;;;;;;;;;;;4930337;29;19986;-81
2022/07/06 11:54:06;;;;;;;;;;;;;;;;;;4934136;29;19934;-82
2022/07/06 11:56:34;;;;;;;;;;;;;;;;;;4927545;29;20382;-81
2022/07/06 11:59:01;;;;;;;;;;;;;;;;;;4931982;29;19926;-81
2022/07/06 12:01:30;;;;;;;;;;;;;;;;;;4931644;29;19923;-81
2022/07/06 12:03:58;;;;;;;;;;;;;;;;;;4928115;29;19950;-81
2022/07/06 12:06:25;;;;;;;;;;;;;;;;;;4932781;29;19926;-83
2022/07/06 12:08:53;;;;;;;;;;;;;;;;;;4920839;29;19951;-81
2022/07/06 12:11:20;;;;;;;;;;;;;;;;;;4915832;29;20458;-82
2022/07/06 12:13:47;;;;;;;;;;;;;;;;;;4934275;29;19926;-82
2022/07/06 12:16:18;;;;;;;;;;;;;;;;;;4934024;29;20445;-82
2022/07/06 12:18:45;;;;;;;;;;;;;;;;;;4930574;29;19926;-81
2022/07/06 12:21:13;;;;;;;;;;;;;;;;;;4925010;29;19926;-81
2022/07/06 12:23:40;;;;;;;;;;;;;;;;;;4914522;29;20058;-83
2022/07/06 12:26:08;;;;;;;;;;;;;;;;;;4933910;29;19960;-82
2022/07/06 12:28:35;;;;;;;;;;;;;;;;;;4931389;29;19927;-82
2022/07/06 12:31:02;;;;;;;;;;;;;;;;;;4934522;29;20013;-83
2022/07/06 12:33:30;;;;;;;;;;;;;;;;;;4931978;29;20359;-81
2022/07/06 12:35:57;;;;;;;;;;;;;;;;;;4921528;29;19949;-81
2022/07/06 12:38:25;;;;;;;;;;;;;;;;;;4927378;29;19930;-80
2022/07/06 12:40:52;;;;;;;;;;;;;;;;;;4928322;29;20573;-81
2022/07/06 12:43:19;;;;;;;;;;;;;;;;;;4928915;29;20021;-81
2022/07/06 12:45:46;;;;;;;;;;;;;;;;;;4924958;29;20083;-82
2022/07/06 12:48:14;;;;;;;;;;;;;;;;;;4923468;29;19977;-81
2022/07/06 12:50:42;;;;;;;;;;;;;;;;;;4929404;29;19926;-82
2022/07/06 12:53:10;;;;;;;;;;;;;;;;;;4911246;29;19927;-82
2022/07/06 12:55:37;;;;;;;;;;;;;;;;;;4929913;29;20021;-81
2022/07/06 12:58:04;;;;;;;;;;;;;;;;;;4927069;29;19960;-82
2022/07/06 13:00:31;;;;;;;;;;;;;;;;;;4924989;29;19927;-81
2022/07/06 13:02:59;;;;;;;;;;;;;;;;;;4917350;29;21600;-81
2022/07/06 13:05:36;;;;;;;;;;;;;;;;;;4928773;29;19938;-81
2022/07/06 13:08:04;;;;;;;;;;;;;;;;;;4912573;29;19969;-80
2022/07/06 13:10:31;;;;;;;;;;;;;;;;;;4921938;29;19934;-81
2022/07/06 13:12:58;;;;;;;;;;;;;;;;;;4924686;29;20343;-82
2022/07/06 13:15:26;;;;;;;;;;;;;;;;;;4923526;29;19958;-80
2022/07/06 13:17:53;;;;;;;;;;;;;;;;;;4927025;29;19927;-82
2022/07/06 13:20:20;;;;;;;;;;;;;;;;;;4910134;29;19933;-81
2022/07/06 13:22:47;;;;;;;;;;;;;;;;;;4924901;29;19980;-81
2022/07/06 13:25:15;;;;;;;;;;;;;;;;;;4919703;29;19982;-81
2022/07/06 13:27:42;;;;;;;;;;;;;;;;;;4930208;29;19927;-80
2022/07/06 13:30:10;;;;;;;;;;;;;;;;;;4917827;29;19989;-81
2022/07/06 13:32:39;;;;;;;;;;;;;;;;;;4928211;29;19927;-82
2022/07/06 13:35:06;;;;;;;;;;;;;;;;;;4904564;29;20355;-82
2022/07/06 13:37:33;;;;;;;;;;;;;;;;;;4920756;29;20065;-81
2022/07/06 13:40:01;;;;;;;;;;;;;;;;;;4923716;29;19993;-82
2022/07/06 13:42:28;;;;;;;;;;;;;;;;;;4930409;29;20461;-81
2022/07/06 13:44:55;;;;;;;;;;;;;;;;;;4929480;29;20286;-80
2022/07/06 13:47:23;;;;;;;;;;;;;;;;;;4930531;29;20048;-80
2022/07/06 13:49:51;;;;;;;;;;;;;;;;;;4934461;29;19994;-81
2022/07/06 13:52:20;;;;;;;;;;;;;;;;;;4931097;29;19933;-80
2022/07/06 13:54:47;;;;;;;;;;;;;;;;;;4934306;29;20344;-80
2022/07/06 13:57:15;;;;;;;;;;;;;;;;;;4933484;29;19937;-80
2022/07/06 13:59:49;;;;;;;;;;;;;;;;;;4934929;29;19950;-80
2022/07/06 14:02:20;;;;;;;;;;;;;;;;;;4934505;29;19929;-81
2022/07/06 14:04:48;;;;;;;;;;;;;;;;;;4936254;29;19927;-80
2022/07/06 14:07:17;;;;;;;;;;;;;;;;;;4936879;29;19927;-82
2022/07/06 14:09:51;;;;;;;;;;;;;;;;;;4938805;29;20306;-82
2022/07/06 14:12:23;;;;;;;;;;;;;;;;;;4938882;29;19974;-81
2022/07/06 14:14:53;;;;;;;;;;;;;;;;;;4937516;29;19986;-81
2022/07/06 14:17:21;;;;;;;;;;;;;;;;;;4929199;29;19969;-82
2022/07/06 14:19:48;;;;;;;;;;;;;;;;;;4920469;29;19927;-80
2022/07/06 14:22:16;;;;;;;;;;;;;;;;;;4934337;29;19962;-81
2022/07/06 14:24:43;;;;;;;;;;;;;;;;;;4929955;29;19972;-80
2022/07/06 14:27:10;;;;;;;;;;;;;;;;;;4928232;29;19927;-81
2022/07/06 14:29:41;;;;;;;;;;;;;;;;;;4934348;29;20029;-80
2022/07/06 14:32:08;;;;;;;;;;;;;;;;;;4940261;29;19961;-80
2022/07/06 14:34:36;;;;;;;;;;;;;;;;;;4944644;29;20029;-80
2022/07/06 14:37:03;;;;;;;;;;;;;;;;;;4942887;29;20006;-80
2022/07/06 14:39:30;;;;;;;;;;;;;;;;;;4935151;29;19926;-81
2022/07/06 14:41:58;;;;;;;;;;;;;;;;;;4929735;29;20332;-81
2022/07/06 14:44:26;;;;;;;;;;;;;;;;;;4935033;29;20227;-81
2022/07/06 14:46:53;;;;;;;;;;;;;;;;;;4934580;29;19966;-81
2022/07/06 14:49:20;;;;;;;;;;;;;;;;;;4927430;29;20005;-80
2022/07/06 14:51:48;;;;;;;;;;;;;;;;;;4917459;29;19927;-81
2022/07/06 14:54:15;;;;;;;;;;;;;;;;;;4913183;29;20061;-81
2022/07/06 14:56:45;;;;;;;;;;;;;;;;;;4916848;29;20367;-80
2022/07/06 14:59:13;;;;;;;;;;;;;;;;;;4912046;29;20402;-81
2022/07/06 15:01:52;;;;;;;;;;;;;;;;;;4917035;29;20245;-80
2022/07/06 15:04:25;;;;;;;;;;;;;;;;;;4913616;29;19931;-81
2022/07/06 15:06:54;;;;;;;;;;;;;;;;;;4904600;29;19926;-82
2022/07/06 15:09:23;;;;;;;;;;;;;;;;;;4910568;29;19931;-81
2022/07/06 15:11:50;;;;;;;;;;;;;;;;;;4919031;29;20396;-80
2022/07/06 15:14:18;;;;;;;;;;;;;;;;;;4920671;29;19927;-81
2022/07/06 15:16:48;;;;;;;;;;;;;;;;;;4913445;29;20318;-82
2022/07/06 15:19:19;;;;;;;;;;;;;;;;;;4903314;29;19927;-81
2022/07/06 15:21:47;;;;;;;;;;;;;;;;;;4896570;29;19934;-81
2022/07/06 15:24:14;;;;;;;;;;;;;;;;;;4943579;23;19927;-81
2022/07/06 15:26:42;;;;;;;;;;;;;;;;;;4924818;29;19927;-81
2022/07/06 15:29:10;;;;;;;;;;;;;;;;;;4904104;29;19928;-80
2022/07/06 15:31:38;;;;;;;;;;;;;;;;;;4898660;29;19927;-80
2022/07/06 15:34:10;;;;;;;;;;;;;;;;;;4900711;29;20359;-80
2022/07/06 15:36:43;;;;;;;;;;;;;;;;;;4900643;29;20343;-80
2022/07/06 15:39:11;;;;;;;;;;;;;;;;;;4886613;29;20321;-81
2022/07/06 15:41:41;;;;;;;;;;;;;;;;;;4903584;29;19927;-80
2022/07/06 15:44:10;;;;;;;;;;;;;;;;;;4903664;29;19932;-81
2022/07/06 15:46:40;;;;;;;;;;;;;;;;;;4897927;29;19933;-81
2022/07/06 15:49:08;;;;;;;;;;;;;;;;;;4895355;29;20484;-80
2022/07/06 15:51:39;;;;;;;;;;;;;;;;;;4901334;29;20038;-81
2022/07/06 15:54:11;;;;;;;;;;;;;;;;;;4893083;29;19934;-80
2022/07/06 15:56:39;;;;;;;;;;;;;;;;;;4895233;29;20243;-80
2022/07/06 15:59:09;;;;;;;;;;;;;;;;;;4898941;29;19934;-80
2022/07/06 16:01:39;;;;;;;;;;;;;;;;;;4900557;29;19938;-81
2022/07/06 16:04:10;;;;;;;;;;;;;;;;;;4901425;29;19931;-81
2022/07/06 16:06:44;;;;;;;;;;;;;;;;;;4902987;29;19927;-81
2022/07/06 16:09:34;;;;;;;;;;;;;;;;;;4901210;29;19935;-81
2022/07/06 16:12:01;;;;;;;;;;;;;;;;;;4900935;29;19931;-81
2022/07/06 16:14:32;;;;;;;;;;;;;;;;;;4901618;29;19933;-80
2022/07/06 16:17:03;;;;;;;;;;;;;;;;;;4902146;29;19930;-81
2022/07/06 16:19:31;;;;;;;;;;;;;;;;;;4904152;29;20417;-79
2022/07/06 16:22:02;;;;;;;;;;;;;;;;;;4898818;29;20303;-80
2022/07/06 16:24:29;;;;;;;;;;;;;;;;;;4877746;29;19931;-79
2022/07/06 16:26:57;;;;;;;;;;;;;;;;;;4898128;29;19931;-80
2022/07/06 16:29:25;;;;;;;;;;;;;;;;;;4898877;29;20776;-80
2022/07/06 16:31:54;;;;;;;;;;;;;;;;;;4902682;29;19935;-80
2022/07/06 16:34:24;;;;;;;;;;;;;;;;;;4901790;29;20394;-81
2022/07/06 16:36:54;;;;;;;;;;;;;;;;;;4894660;29;20013;-80
2022/07/06 16:39:23;;;;;;;;;;;;;;;;;;4901653;29;19931;-81
2022/07/06 16:41:55;;;;;;;;;;;;;;;;;;4889238;29;19935;-79
2022/07/06 16:44:24;;;;;;;;;;;;;;;;;;4902031;29;20284;-80
2022/07/06 16:46:51;;;;;;;;;;;;;;;;;;4898109;29;19957;-80
2022/07/06 16:49:26;;;;;;;;;;;;;;;;;;4886645;29;20382;-80
2022/07/06 16:52:04;;;;;;;;;;;;;;;;;;4896404;29;19934;-79
2022/07/06 16:54:35;;;;;;;;;;;;;;;;;;4895562;29;19932;-82
2022/07/06 16:57:07;;;;;;;;;;;;;;;;;;4899821;29;19946;-79
2022/07/06 16:59:43;;;;;;;;;;;;;;;;;;4897094;29;19929;-80
2022/07/06 17:02:16;;;;;;;;;;;;;;;;;;4898562;29;19927;-81
2022/07/06 17:04:44;;;;;;;;;;;;;;;;;;4881605;29;20659;-80
2022/07/06 17:07:13;;;;;;;;;;;;;;;;;;4899907;29;19935;-81
2022/07/06 17:09:42;;;;;;;;;;;;;;;;;;4898832;29;20025;-80
2022/07/06 17:12:12;;;;;;;;;;;;;;;;;;4899142;29;19931;-81
2022/07/06 17:14:45;;;;;;;;;;;;;;;;;;4880600;29;20529;-80
2022/07/06 17:17:13;;;;;;;;;;;;;;;;;;4901406;29;20014;-79